createdAt,value
2022-12-03T00:00:13.912Z,21.33
2022-12-03T00:03:22.291Z,22.07
2022-12-03T00:06:34.647Z,19.20
2022-12-03T00:09:43.225Z,21.40
2022-12-03T00:12:51.549Z,20.53
2022-12-03T00:16:00.559Z,19.77
2022-12-03T00:19:08.924Z,22.40
2022-12-03T00:22:18.511Z,19.80
2022-12-03T00:25:26.808Z,17.73
2022-12-03T00:28:35.085Z,17.90
2022-12-03T00:31:45.478Z,21.57
2022-12-03T00:34:54.340Z,17.60
2022-12-03T00:38:04.243Z,18.03
2022-12-03T00:41:13.122Z,19.43
2022-12-03T00:44:21.543Z,20.37
2022-12-03T00:47:29.853Z,15.80
2022-12-03T00:50:38.160Z,24.57
2022-12-03T00:53:47.798Z,18.13
2022-12-03T00:56:56.031Z,17.57
2022-12-03T01:00:07.570Z,17.77
2022-12-03T01:03:15.821Z,16.80
2022-12-03T01:06:24.031Z,22.57
2022-12-03T01:09:33.721Z,17.87
2022-12-03T01:12:42.399Z,18.60
2022-12-03T01:15:51.262Z,16.03
2022-12-03T01:18:59.729Z,21.77
2022-12-03T01:22:08.735Z,17.60
2022-12-03T01:25:19.140Z,18.17
2022-12-03T01:28:29.320Z,16.77
2022-12-03T01:31:58.186Z,19.17
2022-12-03T01:35:07.499Z,18.77
2022-12-03T01:38:20.101Z,18.33
2022-12-03T01:41:34.286Z,17.60
2022-12-03T01:44:43.412Z,21.53
2022-12-03T01:47:52.136Z,17.20
2022-12-03T01:51:01.319Z,16.13
2022-12-03T01:54:19.219Z,16.93
2022-12-03T01:57:35.973Z,20.20
2022-12-03T02:00:44.285Z,18.87
2022-12-03T02:03:52.753Z,15.50
2022-12-03T02:07:21.138Z,17.20
2022-12-03T02:10:34.725Z,20.23
2022-12-03T02:13:45.864Z,18.33
2022-12-03T02:16:54.405Z,20.23
2022-12-03T02:20:05.605Z,16.30
2022-12-03T02:23:27.190Z,17.93
2022-12-03T02:26:37.197Z,15.93
2022-12-03T02:29:45.590Z,18.30
2022-12-03T02:32:55.122Z,18.47
2022-12-03T02:36:04.277Z,16.53
2022-12-03T02:39:12.632Z,19.77
2022-12-03T02:42:38.811Z,18.53
2022-12-03T02:45:51.285Z,20.20
2022-12-03T02:49:02.110Z,18.27
2022-12-03T02:52:10.490Z,25.40
2022-12-03T02:55:20.208Z,18.73
2022-12-03T02:58:33.455Z,16.80
2022-12-03T03:01:42.100Z,17.77
2022-12-03T03:04:51.315Z,15.67
2022-12-03T03:08:02.657Z,19.07
2022-12-03T03:11:11.243Z,16.57
2022-12-03T03:14:21.205Z,17.63
2022-12-03T03:17:29.492Z,20.37
2022-12-03T03:20:38.541Z,18.80
2022-12-03T03:23:46.858Z,17.20
2022-12-03T03:26:58.889Z,17.67
2022-12-03T03:30:11.541Z,14.90
2022-12-03T03:33:20.210Z,18.23
2022-12-03T03:36:28.529Z,15.40
2022-12-03T03:39:37.052Z,16.17
2022-12-03T03:42:45.539Z,19.37
2022-12-03T03:45:56.641Z,15.07
2022-12-03T03:49:06.772Z,18.23
2022-12-03T03:52:15.233Z,16.63
2022-12-03T03:55:23.896Z,17.23
2022-12-03T03:58:32.311Z,17.50
2022-12-03T04:01:42.736Z,17.53
2022-12-03T04:04:52.430Z,13.77
2022-12-03T04:08:01.134Z,14.13
2022-12-03T04:15:57.004Z,15.93
2022-12-03T04:19:06.742Z,22.20
2022-12-03T04:22:33.119Z,15.40
2022-12-03T04:25:58.735Z,16.17
2022-12-03T04:29:07.145Z,14.43
2022-12-03T04:32:33.397Z,14.50
2022-12-03T04:35:45.812Z,17.83
2022-12-03T04:38:54.366Z,16.90
2022-12-03T04:42:03.418Z,15.10
2022-12-03T04:45:12.638Z,16.53
2022-12-03T04:48:20.863Z,18.50
2022-12-03T04:51:30.403Z,16.73
2022-12-03T04:54:39.594Z,18.73
2022-12-03T04:57:47.728Z,16.33
2022-12-03T05:00:55.991Z,14.53
2022-12-03T05:04:04.804Z,16.83
2022-12-03T05:07:14.352Z,18.77
2022-12-03T05:10:22.636Z,14.23
2022-12-03T05:13:30.914Z,16.80
2022-12-03T05:16:39.870Z,16.90
2022-12-03T05:20:05.821Z,16.83
2022-12-03T05:23:16.019Z,16.00
2022-12-03T05:26:24.357Z,17.40
2022-12-03T05:29:32.509Z,17.03
2022-12-03T05:32:40.701Z,16.60
2022-12-03T05:35:49.548Z,15.97
2022-12-03T05:38:59.163Z,19.20
2022-12-03T05:42:24.892Z,17.97
2022-12-03T05:45:36.183Z,19.87
2022-12-03T05:48:44.544Z,16.47
2022-12-03T05:51:58.442Z,21.33
2022-12-03T05:55:11.095Z,20.93
2022-12-03T05:58:19.235Z,19.80
2022-12-03T06:01:27.508Z,18.23
2022-12-03T06:04:36.361Z,18.33
2022-12-03T06:07:44.662Z,20.67
2022-12-03T06:10:54.362Z,19.10
2022-12-03T06:14:02.638Z,22.07
2022-12-03T06:17:11.874Z,17.57
2022-12-03T06:20:22.122Z,21.97
2022-12-03T06:23:30.422Z,17.80
2022-12-03T06:26:39.965Z,21.73
2022-12-03T06:29:48.520Z,18.70
2022-12-03T06:32:56.773Z,21.13
2022-12-03T06:36:05.475Z,19.50
2022-12-03T06:39:14.252Z,20.57
2022-12-03T06:42:23.901Z,19.07
2022-12-03T06:45:32.108Z,17.23
2022-12-03T06:48:40.538Z,20.97
2022-12-03T06:51:49.073Z,16.80
2022-12-03T06:54:57.503Z,20.83
2022-12-03T06:58:07.298Z,19.47
2022-12-03T07:01:16.336Z,16.93
2022-12-03T07:04:24.553Z,16.57
2022-12-03T07:07:33.284Z,18.47
2022-12-03T07:10:41.627Z,17.53
2022-12-03T07:13:51.212Z,17.20
2022-12-03T07:16:59.470Z,15.93
2022-12-03T07:20:09.801Z,17.07
2022-12-03T07:23:18.034Z,17.93
2022-12-03T07:26:26.633Z,17.60
2022-12-03T07:29:36.572Z,15.43
2022-12-03T07:32:44.878Z,12.70
2022-12-03T07:35:53.597Z,14.97
2022-12-03T07:39:01.770Z,15.37
2022-12-03T07:42:10.335Z,16.47
2022-12-03T07:45:20.178Z,16.57
2022-12-03T07:48:28.449Z,16.50
2022-12-03T07:51:36.814Z,16.00
2022-12-03T07:54:45.673Z,16.83
2022-12-03T07:57:54.084Z,17.80
2022-12-03T08:01:03.985Z,18.53
2022-12-03T08:04:13.004Z,14.03
2022-12-03T08:07:21.226Z,14.93
2022-12-03T08:10:29.676Z,16.27
2022-12-03T08:13:38.013Z,19.73
2022-12-03T08:16:49.265Z,16.13
2022-12-03T08:19:57.992Z,18.50
2022-12-03T08:23:15.298Z,14.20
2022-12-03T08:26:26.364Z,14.87
2022-12-03T08:29:34.707Z,15.77
2022-12-03T08:32:45.244Z,16.27
2022-12-03T08:35:54.328Z,14.20
2022-12-03T08:39:23.155Z,17.33
2022-12-03T08:42:43.948Z,14.23
2022-12-03T08:45:54.000Z,14.83
2022-12-03T08:49:03.813Z,16.57
2022-12-03T08:52:17.889Z,16.63
2022-12-03T08:55:36.531Z,14.27
2022-12-03T08:58:48.112Z,16.57
2022-12-03T09:01:57.532Z,16.13
2022-12-03T09:05:20.077Z,14.07
2022-12-03T09:08:28.458Z,15.97
2022-12-03T09:11:36.786Z,13.43
2022-12-03T09:14:45.045Z,16.33
2022-12-03T09:17:53.381Z,14.77
2022-12-03T09:21:03.074Z,14.93
2022-12-03T09:24:11.533Z,20.30
2022-12-03T09:27:20.791Z,17.33
2022-12-03T09:30:29.098Z,17.27
2022-12-03T09:33:37.690Z,13.37
2022-12-03T09:36:47.392Z,19.50
2022-12-03T09:39:56.837Z,15.03
2022-12-03T09:43:05.840Z,18.70
2022-12-03T09:46:14.592Z,21.53
2022-12-03T09:49:22.876Z,15.33
2022-12-03T09:52:35.488Z,16.03
2022-12-03T09:55:46.513Z,17.83
2022-12-03T09:59:00.241Z,19.70
2022-12-03T10:02:21.406Z,22.67
2022-12-03T10:05:31.169Z,19.17
2022-12-03T10:08:40.868Z,16.47
2022-12-03T10:11:49.303Z,16.17
2022-12-03T10:14:57.706Z,15.03
2022-12-03T10:18:19.427Z,14.83
2022-12-03T10:21:32.139Z,14.27
2022-12-03T10:24:41.806Z,15.03
2022-12-03T10:27:59.721Z,15.37
2022-12-03T10:31:11.604Z,13.87
2022-12-03T10:34:28.090Z,16.50
2022-12-03T10:37:36.352Z,16.10
2022-12-03T10:40:46.822Z,15.47
2022-12-03T10:43:55.365Z,14.50
2022-12-03T10:47:10.379Z,16.13
2022-12-03T10:50:21.343Z,18.83
2022-12-03T10:53:34.115Z,17.63
2022-12-03T10:56:44.769Z,15.30
2022-12-03T10:59:53.338Z,19.57
2022-12-03T11:03:01.818Z,14.93
2022-12-03T11:06:16.112Z,15.00
2022-12-03T11:09:31.467Z,14.70
2022-12-03T11:12:43.502Z,15.53
2022-12-03T11:15:53.258Z,18.77
2022-12-03T11:19:04.069Z,15.10
2022-12-03T11:22:41.238Z,16.20
2022-12-03T11:25:51.410Z,14.17
2022-12-03T11:29:01.433Z,15.03
2022-12-03T11:32:09.859Z,15.70
2022-12-03T11:35:28.906Z,16.83
2022-12-03T11:38:57.796Z,15.90
2022-12-03T11:42:38.385Z,16.60
2022-12-03T11:45:48.157Z,18.33
2022-12-03T11:49:00.877Z,18.07
2022-12-03T11:52:30.416Z,18.27
2022-12-03T11:55:44.269Z,20.70
2022-12-03T11:59:01.374Z,17.33
2022-12-03T12:02:22.316Z,17.03
2022-12-03T12:05:33.828Z,19.00
2022-12-03T12:08:57.290Z,25.97
2022-12-03T12:12:21.423Z,18.30
2022-12-03T12:15:51.129Z,17.83
2022-12-03T12:19:39.913Z,19.57
2022-12-03T12:22:48.183Z,18.07
2022-12-03T12:26:07.503Z,17.83
2022-12-03T12:29:15.735Z,20.00
2022-12-03T12:32:28.118Z,17.93
2022-12-03T12:35:37.983Z,16.97
2022-12-03T12:38:46.256Z,17.27
2022-12-03T12:41:55.737Z,18.80
2022-12-03T12:45:16.229Z,18.17
2022-12-03T12:48:28.744Z,15.40
2022-12-03T12:51:44.476Z,16.37
2022-12-03T12:54:52.713Z,13.33
2022-12-03T12:58:07.175Z,16.37
2022-12-03T13:01:23.339Z,16.93
2022-12-03T13:04:31.963Z,16.10
2022-12-03T13:07:44.164Z,17.80
2022-12-03T13:10:54.849Z,18.90
2022-12-03T13:14:11.842Z,17.30
2022-12-03T13:17:24.407Z,19.30
2022-12-03T13:20:32.826Z,15.63
2022-12-03T13:23:43.406Z,20.80
2022-12-03T13:26:51.650Z,22.80
2022-12-03T13:30:08.021Z,19.37
2022-12-03T13:33:26.281Z,22.27
2022-12-03T13:36:42.378Z,18.83
2022-12-03T13:39:56.671Z,23.30
2022-12-03T13:43:11.489Z,20.73
2022-12-03T13:46:19.877Z,23.67
2022-12-03T13:49:29.904Z,20.33
2022-12-03T13:52:38.339Z,18.47
2022-12-03T13:55:50.745Z,21.77
2022-12-03T13:59:01.960Z,22.90
2022-12-03T14:02:11.308Z,24.20
2022-12-03T14:05:19.607Z,20.17
2022-12-03T14:08:27.820Z,19.83
2022-12-03T14:11:55.209Z,20.57
2022-12-03T14:15:06.240Z,18.53
2022-12-03T14:18:14.628Z,20.63
2022-12-03T14:21:23.031Z,19.40
2022-12-03T14:24:32.122Z,20.03
2022-12-03T14:27:41.770Z,17.77
2022-12-03T14:30:49.970Z,18.83
2022-12-03T14:33:58.237Z,20.87
2022-12-03T14:37:06.696Z,22.97
2022-12-03T14:40:20.981Z,21.60
2022-12-03T14:43:32.295Z,19.30
2022-12-03T14:46:43.204Z,21.33
2022-12-03T14:49:52.981Z,23.40
2022-12-03T14:53:01.742Z,21.43
2022-12-03T14:56:10.213Z,22.57
2022-12-03T14:59:25.842Z,20.30
2022-12-03T15:02:36.828Z,20.67
2022-12-03T15:05:45.709Z,28.53
2022-12-03T15:08:54.644Z,17.80
2022-12-03T15:12:02.918Z,20.60
2022-12-03T15:15:13.851Z,20.73
2022-12-03T15:18:22.533Z,18.23
2022-12-03T15:21:32.755Z,20.20
2022-12-03T15:24:41.261Z,16.70
2022-12-03T15:27:49.496Z,18.77
2022-12-03T15:30:59.791Z,22.10
2022-12-03T15:34:08.657Z,16.93
2022-12-03T15:37:17.299Z,22.40
2022-12-03T15:40:25.812Z,20.83
2022-12-03T15:43:34.128Z,20.17
2022-12-03T15:46:44.033Z,19.33
2022-12-03T15:49:52.681Z,21.40
2022-12-03T15:53:01.497Z,20.30
2022-12-03T15:56:11.901Z,26.00
2022-12-03T15:59:20.268Z,24.90
2022-12-03T16:02:33.799Z,22.10
2022-12-03T16:05:42.223Z,21.30
2022-12-03T16:08:50.371Z,25.43
2022-12-03T16:11:58.635Z,19.77
2022-12-03T16:15:08.406Z,20.17
2022-12-03T16:18:18.773Z,21.33
2022-12-03T16:21:27.525Z,27.10
2022-12-03T16:24:35.993Z,23.93
2022-12-03T16:27:44.372Z,21.57
2022-12-03T16:30:52.656Z,25.20
2022-12-03T16:34:02.516Z,25.63
2022-12-03T16:37:11.470Z,23.57
2022-12-03T16:40:28.514Z,25.63
2022-12-03T16:43:38.891Z,23.43
2022-12-03T16:46:47.476Z,31.33
2022-12-03T16:49:57.479Z,21.33
2022-12-03T16:53:06.319Z,26.90
2022-12-03T16:56:15.054Z,24.20
2022-12-03T16:59:23.403Z,29.97
2022-12-03T17:02:31.834Z,24.10
2022-12-03T17:05:42.022Z,25.77
2022-12-03T17:08:50.286Z,23.57
2022-12-03T17:11:59.081Z,27.37
2022-12-03T17:15:08.316Z,24.77
2022-12-03T17:18:16.656Z,23.10
2022-12-03T17:21:41.388Z,34.13
2022-12-03T17:24:49.682Z,24.40
2022-12-03T17:27:58.125Z,26.77
2022-12-03T17:31:06.722Z,25.63
2022-12-03T17:34:15.088Z,22.83
2022-12-03T17:37:25.016Z,24.77
2022-12-03T17:40:33.324Z,22.93
2022-12-03T17:43:41.624Z,25.97
2022-12-03T17:46:50.071Z,27.07
2022-12-03T17:49:58.774Z,25.37
2022-12-03T17:53:10.502Z,22.57
2022-12-03T17:56:18.781Z,33.43
2022-12-03T17:59:27.116Z,26.93
2022-12-03T18:02:35.724Z,19.37
2022-12-03T18:05:43.992Z,31.27
2022-12-03T18:08:53.614Z,24.63
2022-12-03T18:12:02.548Z,24.37
2022-12-03T18:15:11.712Z,32.87
2022-12-03T18:18:19.982Z,27.53
2022-12-03T18:21:28.946Z,28.50
2022-12-03T18:24:38.806Z,28.37
2022-12-03T18:27:47.696Z,23.33
2022-12-03T18:30:56.343Z,36.40
2022-12-03T18:34:05.677Z,32.20
2022-12-03T18:37:15.144Z,30.07
2022-12-03T18:40:27.110Z,28.07
2022-12-03T18:43:35.775Z,26.17
2022-12-03T18:46:59.393Z,27.30
2022-12-03T18:50:09.841Z,28.20
2022-12-03T18:53:20.180Z,23.77
2022-12-03T18:56:29.874Z,22.43
2022-12-03T18:59:38.257Z,27.50
2022-12-03T19:03:02.342Z,31.43
2022-12-03T19:06:18.675Z,26.20
2022-12-03T19:09:27.460Z,39.27
2022-12-03T19:12:37.691Z,51.13
2022-12-03T19:15:46.364Z,44.87
2022-12-03T19:18:54.568Z,26.33
2022-12-03T19:22:02.767Z,26.27
2022-12-03T19:25:11.235Z,33.57
2022-12-03T19:28:20.756Z,42.77
2022-12-03T19:31:33.119Z,34.23
2022-12-03T19:34:41.503Z,40.70
2022-12-03T19:37:51.231Z,27.17
2022-12-03T19:41:01.624Z,30.00
2022-12-03T19:44:15.203Z,35.97
2022-12-03T19:47:24.735Z,34.50
2022-12-03T19:50:32.990Z,37.23
2022-12-03T19:53:42.242Z,43.43
2022-12-03T19:56:50.463Z,30.50
2022-12-03T20:00:01.119Z,24.90
2022-12-03T20:03:09.358Z,24.23
2022-12-03T20:06:23.089Z,27.03
2022-12-03T20:09:31.338Z,24.70
2022-12-03T20:12:39.793Z,27.57
2022-12-03T20:15:49.368Z,23.00
2022-12-03T20:19:00.344Z,24.70
2022-12-03T20:22:08.813Z,27.97
2022-12-03T20:25:17.310Z,22.90
2022-12-03T20:28:26.591Z,19.70
2022-12-03T20:31:36.578Z,20.33
2022-12-03T20:34:45.763Z,32.73
2022-12-03T20:37:54.039Z,24.87
2022-12-03T20:41:03.904Z,28.43
2022-12-03T20:44:13.936Z,20.93
2022-12-03T20:47:24.078Z,27.97
2022-12-03T20:50:32.609Z,23.57
2022-12-03T20:53:42.361Z,25.80
2022-12-03T20:56:54.228Z,24.13
2022-12-03T21:00:03.051Z,24.57
2022-12-03T21:03:13.173Z,20.23
2022-12-03T21:06:23.910Z,23.70
2022-12-03T21:09:32.632Z,21.80
2022-12-03T21:12:40.967Z,21.93
2022-12-03T21:15:49.751Z,25.43
2022-12-03T21:19:00.704Z,33.47
2022-12-03T21:22:08.985Z,34.20
2022-12-03T21:25:19.805Z,31.13
2022-12-03T21:28:28.582Z,38.97
2022-12-03T21:31:38.331Z,36.27
2022-12-03T21:34:48.753Z,31.23
2022-12-03T21:37:57.732Z,25.90
2022-12-03T21:41:07.008Z,27.13
2022-12-03T21:44:15.371Z,28.33
2022-12-03T21:47:23.976Z,27.03
2022-12-03T21:50:33.827Z,23.40
2022-12-03T21:53:43.710Z,27.17
2022-12-03T21:56:52.064Z,22.73
2022-12-03T22:00:00.624Z,30.17
2022-12-03T22:03:09.700Z,32.37
2022-12-03T22:06:20.137Z,23.27
2022-12-03T22:09:33.707Z,23.37
2022-12-03T22:12:42.231Z,27.17
2022-12-03T22:15:53.595Z,24.80
2022-12-03T22:19:04.738Z,20.67
2022-12-03T22:22:18.007Z,22.40
2022-12-03T22:25:27.057Z,21.57
2022-12-03T22:28:36.249Z,19.73
2022-12-03T22:31:45.457Z,21.63
2022-12-03T22:34:54.165Z,29.53
2022-12-03T22:38:04.190Z,29.03
2022-12-03T22:41:14.653Z,21.00
2022-12-03T22:44:23.326Z,21.43
2022-12-03T22:47:31.542Z,25.37
2022-12-03T22:50:44.542Z,23.37
2022-12-03T22:53:58.748Z,21.13
2022-12-03T22:57:06.997Z,22.30
2022-12-03T23:00:28.939Z,21.53
2022-12-03T23:03:38.264Z,21.47
2022-12-03T23:06:47.174Z,23.43
2022-12-03T23:09:58.398Z,23.67
2022-12-03T23:13:09.875Z,18.40
2022-12-03T23:16:22.298Z,20.60
2022-12-03T23:19:30.599Z,18.93
2022-12-03T23:22:38.813Z,21.67
2022-12-03T23:25:58.466Z,29.77
2022-12-03T23:29:08.613Z,18.13
2022-12-03T23:32:17.741Z,33.23
2022-12-03T23:35:26.365Z,16.07
2022-12-03T23:38:34.824Z,15.93
2022-12-03T23:41:44.322Z,17.40
2022-12-03T23:44:52.526Z,16.83
2022-12-03T23:48:00.886Z,16.70
2022-12-03T23:51:12.722Z,18.50
2022-12-03T23:54:20.976Z,16.27
2022-12-03T23:57:30.779Z,21.13
